Airfield :
LOGIN :

Register | Disclaimer

   EN    FR    IT 

 










Legend :    VFR   Marginal VFR   IFR   Intensive IFR   Very Intensive IFR
Visi :
Ceiling :
>= 8 km
>= 3000ft
5 to 8 km
1000 to 3000 ft
1500m to 5 km
500 to 1000 ft
800 to 1500m
200 to 500 ft
< 800m
< 200 ft
Symbols :   Thunderstorms  Fog  Heavy snow  Heavy precipitations  Wind > 20 kt
SIGMETs :     Misc.  Thunderstorms  Icing  Turbulence  Mountain Waves  Volcanic Ashes







- Airport Elevation : 47 ft
- IATA code : CBG
- Download approach charts


EGSC - Cambridge

CURRENT METAR :
  • 211150Z 25021G32KT 9999 BKN042 16/04 Q1007

EXPIRED METARs :
  • 211120Z 26021G36KT 9999 BKN042 14/03 Q1006
  • 211050Z 26019G34KT 9999 SCT042 14/03 Q1006
  • 211020Z 27019KT 240V300 9999 SCT037 13/04 Q1006
  • 210950Z 26020KT 230V290 9999 SCT033 13/04 Q1006
  • 210920Z 27020G30KT 220V280 9999 SCT033 13/05 Q1005
  • 210850Z 27017KT 9999 FEW033 12/05 Q1005

TAF TAF EGSC
Valid from the 21 at 12:00 until the 21 at 19:00 UTC


211059Z 2112/2119 27017G27KT 9999 SCT040
PROB30
TEMPO 2112/2119 28027G37KT 7000 SHRA
No reported NOTAMs for that airfield.
3 SIGMETs reported for the London FIR (EGTT) :
 
Severe turbulence
EGTT SIGMET 06 VALID 211200/211600 EGRR
EGTT LONDON FIR SEV TURB FCST WI N5100 W00800 - N5112 W00738 - N5044 W00626 - N4932 W00800 - N5100 W00800 FL200/370 MOV ENE 25KT NC=
Severe turbulence
EGTT SIGMET 05 VALID 211100/211500 EGRR
EGTT LONDON FIR SEV TURB FCST WI N5220 W00530 - N5338 W00530 - N5321 W00342 - N5050 W00431 - N5131 W00702 - N5220 W00530 SFC/FL060 MOV E 25KT NC=
Severe turbulence
EGTT SIGMET 04 VALID 210900/211200 EGRR
EGTT LONDON FIR SEV TURB FCST NE OF LINE N5500 W00211 - N5240 E00256 SFC/FL060 MOV NE 15KT NC=



MET'MAP, your aeronautical weather chart ! - Copyright ORBIFLY December 2007 - Disclaimer

ORBIFLY MET'MAP TEAM :

Programming & Development : Alexandra Zaïnal
Concept & Development : Baudouin d'Aumeries
Co-Development & Prog : Marc-Olivier Méhu
Technical & hardware support : Manuel Goepfert

Contact : metmap@orbifly.com




SOURCES & CREDITS :

   NOAA